INFORMACIÓN METAR y TAF
METAR FOR LCLK
ADDS - METARS form results

(0324 UTC 16 December 2019)
Data provider http://aviationweather.gov/metar/data/
 
METAR text: LCLK 160300Z 30006KT 9999 FEW020 12/10 Q1022 NOSIG
Conditions at: LCLK (LARNACA/LARNAX A, CY) observed 0300 UTC 16 December 2019
Temperature: 12.0°C (54°F)
Dewpoint: 10.0°C (50°F) [RH = 88%]
Pressure (altimeter): 30.18 inches Hg (1022.0 mb)
Winds: from the WNW (300 degrees) at 7 MPH (6 knots; 3.1 m/s)
Visibility: 6 or more miles (10+ km)
Ceiling: at least 12,000 feet AGL
Clouds: few clouds at 2000 feet AGL
Weather: no significant weather observed at this time

METAR text: LCLK 160230Z 31006KT 9999 FEW030 12/09 Q1022 NOSIG
Conditions at: LCLK (LARNACA/LARNAX A, CY) observed 0230 UTC 16 December 2019
Temperature: 12.0°C (54°F)
Dewpoint: 9.0°C (48°F) [RH = 82%]
Pressure (altimeter): 30.18 inches Hg (1022.0 mb)
Winds: from the NW (310 degrees) at 7 MPH (6 knots; 3.1 m/s)
Visibility: 6 or more miles (10+ km)
Ceiling: at least 12,000 feet AGL
Clouds: few clouds at 3000 feet AGL
Weather: no significant weather observed at this time

Forecast for: LCLK (LARNACA/LARNAX A, CY)
Text: TAF LCLK 152330Z 1600/1624 30006KT 9999 FEW030
Forecast period: 0000 to 0500 UTC 16 December 2019
Forecast type: FROM: standard forecast or significant change
Winds: from the WNW (300 degrees) at 7 MPH (6 knots; 3.1 m/s)
Visibility: 6 or more miles 10+ km)
Ceiling: at least 12,000 feet AGL
Clouds: few clouds at 3000 feet AGL
Weather: no significant weather forecast for this period
Text: BECMG 1605/1609 36014KT
Forecast period: 0500 to 1800 UTC 16 December 2019
Forecast type: BECOMING: Conditions expected to become as follows by 0900 UTC 16 December 2019
Winds: from the N (360 degrees) at 16 MPH (14 knots; 7.2 m/s)
Visibility: 6 or more miles 10+ km)
Ceiling: at least 12,000 feet AGL
Clouds: few clouds at 3000 feet AGL
Weather: no significant weather forecast for this period
Text: BECMG 1618/1622 30008KT
Forecast period: 1800 UTC 16 December 2019 to 0000 UTC 17 December 2019
Forecast type: BECOMING: Conditions expected to become as follows by 2200 UTC 16 December 2019
Winds: from the WNW (300 degrees) at 9 MPH (8 knots; 4.1 m/s)
Visibility: 6 or more miles 10+ km)
Ceiling: at least 12,000 feet AGL
Clouds: few clouds at 3000 feet AGL
Weather: no significant weather forecast for this period

MAPA DE AEROPUERTO

INFORMACIÓN DE PISTA
Pista 04 Longitud 9776 ft Ancho 148 ft
Elevación 11 ft Umbral desplazado 0 ft Rumbo de pista 45
Pista 22 Longitud 9776 ft Ancho 148 ft
Elevación 6 ft Umbral desplazado 575 ft Rumbo de pista 225

FRECUANCIAS DEL AEROPUERTO
Tipo APP Nombre APP Frecuencia 121.2 MHZ
Tipo ATIS Nombre ATIS Frecuencia 126.55 MHZ
Tipo TWR Nombre TWR Frecuencia 119.4 MHZ

RADIO AYUDAS DEL AEROPUERTO
Tipo VOR-DME Nombre Larnaca Frecuencia 112800 KHZ
Tipo NDB Nombre Larnaca Frecuencia 432 KHZ